createdAt,value
2023-02-07T00:01:32.677Z,102986.56
2023-02-07T00:04:35.510Z,102992.00
2023-02-07T00:07:39.028Z,102997.59
2023-02-07T00:10:43.265Z,103000.03
2023-02-07T00:13:47.777Z,102996.03
2023-02-07T00:16:50.507Z,102997.47
2023-02-07T00:19:53.326Z,102992.78
2023-02-07T00:22:56.066Z,103002.53
2023-02-07T00:26:00.819Z,103007.31
2023-02-07T00:29:04.141Z,103014.81
2023-02-07T00:32:08.362Z,103020.00
2023-02-07T00:35:11.312Z,103013.41
2023-02-07T00:38:14.547Z,103013.28
2023-02-07T00:41:20.136Z,102997.03
2023-02-07T00:44:23.257Z,103005.19
2023-02-07T00:47:27.098Z,102999.97
2023-02-07T00:50:30.290Z,103002.84
2023-02-07T00:53:33.260Z,103008.41
2023-02-07T00:56:38.503Z,103016.66
2023-02-07T00:59:41.291Z,103018.53
2023-02-07T01:02:47.740Z,103024.78
2023-02-07T01:05:50.611Z,103021.63
2023-02-07T01:08:56.611Z,103019.38
2023-02-07T01:12:00.892Z,103020.78
2023-02-07T01:15:05.209Z,103018.84
2023-02-07T01:18:08.979Z,103019.03
2023-02-07T01:21:16.054Z,103019.03
2023-02-07T01:24:18.822Z,103026.22
2023-02-07T01:27:24.179Z,103025.19
2023-02-07T01:30:28.002Z,103020.06
2023-02-07T01:33:31.146Z,103025.44
2023-02-07T01:36:34.165Z,103026.72
2023-02-07T01:39:36.916Z,103023.44
2023-02-07T01:42:41.204Z,103024.84
2023-02-07T01:45:44.356Z,103024.50
2023-02-07T01:48:47.451Z,103015.91
2023-02-07T01:51:56.290Z,103009.56
2023-02-07T01:55:02.772Z,103004.88
2023-02-07T01:58:09.159Z,102998.38
2023-02-07T02:01:19.264Z,103005.25
2023-02-07T02:04:22.725Z,102995.53
2023-02-07T02:07:27.373Z,102989.84
2023-02-07T02:10:49.221Z,102982.53
2023-02-07T02:14:04.790Z,102983.06
2023-02-07T02:17:21.630Z,102985.25
2023-02-07T02:20:45.225Z,102979.69
2023-02-07T02:24:07.878Z,102990.72
2023-02-07T02:27:17.302Z,102995.34
2023-02-07T02:31:01.865Z,102996.53
2023-02-07T02:34:12.714Z,102998.00
2023-02-07T02:37:25.074Z,102987.84
2023-02-07T02:40:39.166Z,102986.88
2023-02-07T02:43:46.262Z,102981.34
2023-02-07T02:46:52.890Z,102996.81
2023-02-07T02:49:58.344Z,102999.94
2023-02-07T02:53:02.524Z,102983.06
2023-02-07T02:56:17.908Z,102998.53
2023-02-07T02:59:41.427Z,103000.34
2023-02-07T03:02:53.425Z,103005.25
2023-02-07T03:06:11.709Z,102999.78
2023-02-07T03:09:25.617Z,103004.06
2023-02-07T03:12:39.498Z,102998.38
2023-02-07T03:15:50.830Z,103004.03
2023-02-07T03:19:04.317Z,103003.66
2023-02-07T03:22:13.195Z,103007.91
2023-02-07T03:25:21.588Z,102997.72
2023-02-07T03:28:26.442Z,102999.34
2023-02-07T03:31:31.690Z,102999.56
2023-02-07T03:34:38.965Z,102998.72
2023-02-07T03:37:48.086Z,103003.03
2023-02-07T03:40:56.584Z,103003.44
2023-02-07T03:44:01.181Z,103010.75
2023-02-07T03:47:04.933Z,103002.66
2023-02-07T03:50:08.293Z,103002.41
2023-02-07T03:53:12.468Z,103001.81
2023-02-07T03:56:15.184Z,103003.22
2023-02-07T03:59:18.034Z,103013.41
2023-02-07T04:02:20.853Z,103016.59
2023-02-07T04:05:43.899Z,103010.50
2023-02-07T04:08:48.110Z,103005.34
2023-02-07T04:11:51.614Z,103003.94
2023-02-07T04:14:54.451Z,103009.56
2023-02-07T04:17:57.244Z,103007.53
2023-02-07T04:21:04.296Z,102997.31
2023-02-07T04:24:09.588Z,103009.38
2023-02-07T04:27:12.528Z,102997.31
2023-02-07T04:30:15.392Z,103000.25
2023-02-07T04:33:18.800Z,102992.63
2023-02-07T04:36:22.741Z,102999.56
2023-02-07T04:39:27.478Z,103004.63
2023-02-07T04:42:30.379Z,103003.19
2023-02-07T04:45:33.242Z,103004.94
2023-02-07T04:48:37.674Z,103000.88
2023-02-07T04:51:41.114Z,103010.06
2023-02-07T04:54:46.222Z,103017.56
2023-02-07T04:57:49.460Z,103010.44
2023-02-07T05:00:54.489Z,103009.13
2023-02-07T05:03:57.441Z,103019.63
2023-02-07T05:07:00.335Z,103024.69
2023-02-07T05:10:05.324Z,103031.59
2023-02-07T05:13:09.549Z,103034.72
2023-02-07T05:16:13.878Z,103036.53
2023-02-07T05:19:16.735Z,103043.25
2023-02-07T05:22:19.562Z,103041.75
2023-02-07T05:25:23.818Z,103049.91
2023-02-07T05:28:26.696Z,103057.63
2023-02-07T05:31:48.598Z,103054.19
2023-02-07T05:34:51.485Z,103050.59
2023-02-07T05:37:54.252Z,103056.41
2023-02-07T05:40:58.967Z,103066.28
2023-02-07T05:44:01.805Z,103070.69
2023-02-07T05:47:04.588Z,103068.41
2023-02-07T05:50:07.881Z,103064.59
2023-02-07T05:53:12.921Z,103056.59
2023-02-07T05:56:18.104Z,103062.34
2023-02-07T05:59:20.922Z,103057.66
2023-02-07T06:02:24.374Z,103071.09
2023-02-07T06:05:31.845Z,103072.47
2023-02-07T06:08:34.841Z,103068.38
2023-02-07T06:11:39.025Z,103061.44
2023-02-07T06:14:41.805Z,103068.69
2023-02-07T06:17:44.762Z,103069.34
2023-02-07T06:20:50.704Z,103086.16
2023-02-07T06:23:53.873Z,103084.34
2023-02-07T06:26:58.093Z,103089.59
2023-02-07T06:30:00.883Z,103086.31
2023-02-07T06:33:03.986Z,103089.50
2023-02-07T06:36:07.457Z,103096.94
2023-02-07T06:39:11.252Z,103097.94
2023-02-07T06:42:15.936Z,103111.91
2023-02-07T06:45:18.855Z,103100.19
2023-02-07T06:48:22.034Z,103106.41
2023-02-07T06:51:25.271Z,103108.78
2023-02-07T06:54:28.322Z,103119.16
2023-02-07T06:57:32.553Z,103117.75
2023-02-07T07:00:38.916Z,103111.66
2023-02-07T07:03:41.934Z,103107.13
2023-02-07T07:06:44.742Z,103097.47
2023-02-07T07:09:48.243Z,103098.56
2023-02-07T07:12:53.449Z,103093.56
2023-02-07T07:15:56.432Z,103090.28
2023-02-07T07:19:00.833Z,103089.56
2023-02-07T07:22:53.432Z,103085.53
2023-02-07T07:25:56.379Z,103083.88
2023-02-07T07:29:02.386Z,103065.47
2023-02-07T07:32:06.500Z,103087.72
2023-02-07T07:35:09.799Z,103082.59
2023-02-07T07:38:12.866Z,103087.81
2023-02-07T07:41:15.770Z,103089.13
2023-02-07T07:44:20.385Z,103079.34
2023-02-07T07:47:25.110Z,103083.94
2023-02-07T07:50:28.523Z,103080.56
2023-02-07T07:53:31.512Z,103088.13
2023-02-07T07:56:36.579Z,103076.50
2023-02-07T07:59:41.049Z,103090.56
2023-02-07T08:02:44.122Z,103092.25
2023-02-07T08:05:48.731Z,103089.25
2023-02-07T08:08:51.515Z,103092.84
2023-02-07T08:11:54.320Z,103083.41
2023-02-07T08:14:58.759Z,103089.44
2023-02-07T08:18:01.646Z,103093.47
2023-02-07T08:21:08.095Z,103100.59
2023-02-07T08:24:13.170Z,103101.47
2023-02-07T08:27:15.983Z,103113.31
2023-02-07T08:30:21.488Z,103113.91
2023-02-07T08:33:29.418Z,103111.22
2023-02-07T08:36:36.000Z,103101.13
2023-02-07T08:39:38.985Z,103101.81
2023-02-07T08:42:41.920Z,103099.78
2023-02-07T08:45:48.824Z,103099.16
2023-02-07T08:48:51.873Z,103090.00
2023-02-07T08:51:55.246Z,103092.84
2023-02-07T08:54:58.516Z,103094.78
2023-02-07T08:58:01.644Z,103091.38
2023-02-07T09:01:11.183Z,103093.81
2023-02-07T09:04:14.204Z,103096.16
2023-02-07T09:07:19.883Z,103095.75
2023-02-07T09:10:22.972Z,103096.53
2023-02-07T09:13:25.965Z,103103.06
2023-02-07T09:16:32.958Z,103111.44
2023-02-07T09:19:36.760Z,103109.91
2023-02-07T09:22:58.348Z,103119.84
2023-02-07T09:26:03.712Z,103114.03
2023-02-07T09:29:10.268Z,103096.53
2023-02-07T09:32:14.904Z,103108.81
2023-02-07T09:35:18.606Z,103101.13
2023-02-07T09:38:23.678Z,103108.81
2023-02-07T09:41:33.978Z,103107.25
2023-02-07T09:44:55.422Z,103116.53
2023-02-07T09:48:04.486Z,103109.53
2023-02-07T09:51:11.796Z,103115.88
2023-02-07T09:54:22.791Z,103111.66
2023-02-07T09:57:29.635Z,103104.41
2023-02-07T10:00:37.861Z,103101.81
2023-02-07T10:03:49.297Z,103095.75
2023-02-07T10:07:07.520Z,103103.47
2023-02-07T10:10:15.468Z,103091.56
2023-02-07T10:13:46.741Z,103089.63
2023-02-07T10:17:04.407Z,103088.91
2023-02-07T10:20:26.653Z,103088.75
2023-02-07T10:23:41.394Z,103079.56
2023-02-07T10:26:50.046Z,103078.44
2023-02-07T10:29:58.430Z,103075.41
2023-02-07T10:33:06.582Z,103074.97
2023-02-07T10:36:14.958Z,103076.13
2023-02-07T10:39:25.990Z,103067.16
2023-02-07T10:42:31.695Z,103077.16
2023-02-07T10:45:34.566Z,103060.81
2023-02-07T10:48:38.900Z,103051.56
2023-02-07T10:51:44.688Z,103058.16
2023-02-07T10:54:53.652Z,103044.19
2023-02-07T10:58:02.794Z,103046.38
2023-02-07T11:01:19.116Z,103037.56
2023-02-07T11:04:35.750Z,103021.75
2023-02-07T11:07:47.596Z,103022.16
2023-02-07T11:10:52.510Z,103021.50
2023-02-07T11:14:03.500Z,103024.16
2023-02-07T11:17:06.595Z,103021.91
2023-02-07T11:20:20.581Z,103019.44
2023-02-07T11:23:25.978Z,103017.94
2023-02-07T11:26:30.570Z,103020.09
2023-02-07T11:29:43.975Z,103017.28
2023-02-07T11:32:55.695Z,103010.47
2023-02-07T11:36:02.565Z,103003.66
2023-02-07T11:39:15.908Z,103000.50
2023-02-07T11:42:20.962Z,103002.91
2023-02-07T11:45:24.372Z,103002.47
2023-02-07T11:48:30.269Z,102992.34
2023-02-07T11:51:35.317Z,102995.94
2023-02-07T11:54:42.530Z,102986.16
2023-02-07T11:57:46.383Z,102985.97
2023-02-07T12:00:49.876Z,102981.50
2023-02-07T12:04:00.807Z,102974.19
2023-02-07T12:07:08.604Z,102960.25
2023-02-07T12:10:16.261Z,102953.13
2023-02-07T12:13:24.521Z,102953.75
2023-02-07T12:16:34.287Z,102945.16
2023-02-07T12:19:49.862Z,102936.78
2023-02-07T12:23:11.785Z,102944.47
2023-02-07T12:26:27.408Z,102930.16
2023-02-07T12:29:43.146Z,102927.31
2023-02-07T12:32:55.624Z,102930.69
2023-02-07T12:36:07.718Z,102926.94
2023-02-07T12:39:20.452Z,102929.75
2023-02-07T12:42:33.153Z,102921.31
2023-02-07T12:45:54.315Z,102917.88
2023-02-07T12:49:16.351Z,102916.63
2023-02-07T12:52:32.403Z,102919.41
2023-02-07T12:55:45.785Z,102908.31
2023-02-07T12:59:00.656Z,102906.00
2023-02-07T13:02:26.772Z,102916.84
2023-02-07T13:05:50.993Z,102910.72
2023-02-07T13:09:02.717Z,102915.59
2023-02-07T13:12:15.344Z,102920.38
2023-02-07T13:15:27.090Z,102914.78
2023-02-07T13:18:41.483Z,102914.47
2023-02-07T13:21:50.946Z,102923.78
2023-02-07T13:24:55.494Z,102922.88
2023-02-07T13:28:03.892Z,102923.53
2023-02-07T13:31:15.871Z,102927.63
2023-02-07T13:34:23.163Z,102927.75
2023-02-07T13:37:38.031Z,102929.00
2023-02-07T13:40:54.060Z,102924.25
2023-02-07T13:44:10.021Z,102922.75
2023-02-07T13:47:36.961Z,102928.28
2023-02-07T13:50:47.086Z,102923.16
2023-02-07T13:53:59.006Z,102910.44
2023-02-07T13:57:21.540Z,102914.22
2023-02-07T14:00:27.963Z,102911.63
2023-02-07T14:03:35.843Z,102916.34
2023-02-07T14:06:40.617Z,102913.63
2023-02-07T14:09:47.638Z,102910.94
2023-02-07T14:12:53.009Z,102920.78
2023-02-07T14:16:02.723Z,102916.81
2023-02-07T14:19:12.855Z,102913.31
2023-02-07T14:22:20.064Z,102921.03
2023-02-07T14:25:24.759Z,102926.00
2023-02-07T14:28:32.947Z,102919.13
2023-02-07T14:31:35.840Z,102926.63
2023-02-07T14:35:02.182Z,102919.81
2023-02-07T14:38:22.656Z,102913.50
2023-02-07T14:41:29.595Z,102916.88
2023-02-07T14:44:35.707Z,102922.16
2023-02-07T14:47:39.039Z,102918.31
2023-02-07T14:50:52.784Z,102917.59
2023-02-07T14:54:03.098Z,102909.28
2023-02-07T14:57:16.166Z,102915.81
2023-02-07T15:00:28.718Z,102919.25
2023-02-07T15:03:34.602Z,102925.34
2023-02-07T15:06:42.196Z,102926.47
2023-02-07T15:09:46.182Z,102922.19
2023-02-07T15:12:50.505Z,102912.97
2023-02-07T15:15:57.591Z,102916.19
2023-02-07T15:19:02.397Z,102925.25
2023-02-07T15:22:20.421Z,102917.97
2023-02-07T15:25:30.828Z,102924.25
2023-02-07T15:28:35.207Z,102918.78
2023-02-07T15:31:39.516Z,102925.31
2023-02-07T15:34:45.257Z,102938.75
2023-02-07T15:37:50.774Z,102934.09
2023-02-07T15:40:55.325Z,102943.94
2023-02-07T15:44:00.343Z,102941.97
2023-02-07T15:47:36.110Z,102950.56
2023-02-07T15:50:39.255Z,102924.56
2023-02-07T15:53:43.840Z,102944.72
2023-02-07T15:56:50.177Z,102951.84
2023-02-07T15:59:55.827Z,102946.63
2023-02-07T16:03:01.787Z,102955.28
2023-02-07T16:06:11.077Z,102936.28
2023-02-07T16:09:40.863Z,102959.06
2023-02-07T16:12:45.485Z,102961.72
2023-02-07T16:15:57.167Z,102959.13
2023-02-07T16:19:06.203Z,102958.41
2023-02-07T16:22:13.968Z,102960.75
2023-02-07T16:25:21.560Z,102959.59
2023-02-07T16:28:25.010Z,102959.31
2023-02-07T16:31:28.736Z,102965.00
2023-02-07T16:34:31.537Z,102958.53
2023-02-07T16:37:34.286Z,102960.81
2023-02-07T16:40:40.329Z,102961.25
2023-02-07T16:43:43.220Z,102951.97
2023-02-07T16:46:46.163Z,102962.25
2023-02-07T16:49:49.160Z,102970.25
2023-02-07T16:52:54.664Z,102954.41
2023-02-07T16:55:59.710Z,102966.16
2023-02-07T16:59:03.981Z,102960.44
2023-02-07T17:02:12.858Z,102956.06
2023-02-07T17:05:16.200Z,102960.81
2023-02-07T17:08:27.724Z,102954.09
2023-02-07T17:11:32.003Z,102959.25
2023-02-07T17:14:36.361Z,102960.50
2023-02-07T17:17:39.525Z,102966.91
2023-02-07T17:20:43.551Z,102963.34
2023-02-07T17:23:47.786Z,102971.19
2023-02-07T17:26:54.530Z,102955.22
2023-02-07T17:29:57.564Z,102963.25
2023-02-07T17:33:00.340Z,102962.88
2023-02-07T17:36:03.520Z,102957.22
2023-02-07T17:39:07.019Z,102962.19
2023-02-07T17:42:11.291Z,102976.47
2023-02-07T17:45:14.424Z,102978.53
2023-02-07T17:48:17.439Z,102975.88
2023-02-07T17:51:22.732Z,102988.75
2023-02-07T17:54:25.706Z,102992.47
2023-02-07T17:57:30.076Z,102987.81
2023-02-07T18:00:36.674Z,102983.19
2023-02-07T18:03:39.620Z,102993.03
2023-02-07T18:06:43.869Z,102979.56
2023-02-07T18:09:47.253Z,102984.91
2023-02-07T18:12:51.790Z,102967.91
2023-02-07T18:15:54.824Z,102987.78
2023-02-07T18:18:58.249Z,102988.22
2023-02-07T18:22:01.613Z,102982.56
2023-02-07T18:25:05.121Z,102974.81
2023-02-07T18:28:09.588Z,102982.44
2023-02-07T18:31:32.290Z,102984.19
2023-02-07T18:34:35.349Z,102983.50
2023-02-07T18:37:38.472Z,102988.81
2023-02-07T18:40:41.742Z,102981.16
2023-02-07T18:43:47.227Z,102987.28
2023-02-07T18:46:50.267Z,102989.84
2023-02-07T18:49:53.372Z,102992.56
2023-02-07T18:52:56.454Z,102993.28
2023-02-07T18:56:03.506Z,102993.97
2023-02-07T18:59:09.350Z,102990.00
2023-02-07T19:02:13.200Z,102995.56
2023-02-07T19:05:16.613Z,102988.97
2023-02-07T19:08:19.682Z,102988.19
2023-02-07T19:11:22.997Z,102987.00
2023-02-07T19:14:30.862Z,102983.50
2023-02-07T19:17:34.620Z,102981.78
2023-02-07T19:20:41.795Z,102986.94
2023-02-07T19:23:46.167Z,102980.47
2023-02-07T19:26:51.504Z,102991.13
2023-02-07T19:29:55.917Z,102986.59
2023-02-07T19:32:59.119Z,102985.44
2023-02-07T19:36:05.763Z,102989.13
2023-02-07T19:39:08.788Z,102983.44
2023-02-07T19:42:11.720Z,102987.41
2023-02-07T19:45:17.595Z,102989.56
2023-02-07T19:48:21.244Z,102979.34
2023-02-07T19:51:27.339Z,102992.00
2023-02-07T19:54:30.270Z,102989.66
2023-02-07T19:57:34.900Z,102991.69
2023-02-07T20:00:39.350Z,102995.97
2023-02-07T20:03:44.304Z,103009.31
2023-02-07T20:06:47.321Z,103008.53
2023-02-07T20:09:50.572Z,103008.81
2023-02-07T20:12:53.612Z,103004.06
2023-02-07T20:15:58.031Z,103013.38
2023-02-07T20:19:01.787Z,103012.88
2023-02-07T20:22:05.105Z,103013.03
2023-02-07T20:25:08.455Z,103017.06
2023-02-07T20:28:11.646Z,103014.34
2023-02-07T20:31:18.794Z,103013.19
2023-02-07T20:34:21.775Z,103019.34
2023-02-07T20:37:24.931Z,103009.75
2023-02-07T20:40:28.082Z,103021.38
2023-02-07T20:43:30.978Z,103027.22
2023-02-07T20:46:36.164Z,103023.22
2023-02-07T20:49:39.248Z,103030.41
2023-02-07T20:52:42.654Z,103028.84
2023-02-07T20:56:08.791Z,103036.09
2023-02-07T20:59:16.050Z,103031.56
2023-02-07T21:02:20.372Z,103021.94
2023-02-07T21:05:23.066Z,103024.09
2023-02-07T21:08:26.090Z,103021.38
2023-02-07T21:11:33.861Z,103027.16
2023-02-07T21:14:37.062Z,103015.59
2023-02-07T21:17:41.748Z,103025.44
2023-02-07T21:20:44.675Z,103022.41
2023-02-07T21:23:48.118Z,103030.25
2023-02-07T21:26:52.959Z,103023.31
2023-02-07T21:29:56.372Z,103026.28
2023-02-07T21:33:01.414Z,103028.47
2023-02-07T21:36:06.242Z,103026.19
2023-02-07T21:39:12.017Z,103023.84
2023-02-07T21:42:14.970Z,103033.22
2023-02-07T21:45:18.250Z,103036.34
2023-02-07T21:48:22.362Z,103036.59
2023-02-07T21:51:26.420Z,103042.88
2023-02-07T21:54:29.220Z,103048.47
2023-02-07T21:57:31.974Z,103051.50
2023-02-07T22:00:34.842Z,103040.88
2023-02-07T22:03:59.350Z,103034.97
2023-02-07T22:07:02.054Z,103055.69
2023-02-07T22:10:05.293Z,103051.28
2023-02-07T22:13:08.042Z,103039.53
2023-02-07T22:16:12.469Z,103043.16
2023-02-07T22:19:17.347Z,103040.81
2023-02-07T22:22:20.127Z,103038.56
2023-02-07T22:25:22.953Z,103049.53
2023-02-07T22:28:25.844Z,103043.25
2023-02-07T22:31:30.779Z,103034.28
2023-02-07T22:34:35.114Z,103032.47
2023-02-07T22:37:37.926Z,103026.78
2023-02-07T22:40:42.450Z,103034.59
2023-02-07T22:43:45.710Z,103035.88
2023-02-07T22:46:48.464Z,103047.09
2023-02-07T22:49:53.048Z,103036.81
2023-02-07T22:52:56.451Z,103046.94
2023-02-07T22:56:01.154Z,103040.53
2023-02-07T22:59:04.310Z,103037.25
2023-02-07T23:02:07.218Z,103038.44
2023-02-07T23:05:11.627Z,103044.28
2023-02-07T23:08:14.768Z,103040.66
2023-02-07T23:11:18.867Z,103040.06
2023-02-07T23:14:21.787Z,103040.81
2023-02-07T23:17:24.526Z,103036.97
2023-02-07T23:20:30.036Z,103040.00
2023-02-07T23:23:32.867Z,103038.81
2023-02-07T23:26:35.634Z,103044.34
2023-02-07T23:29:38.442Z,103038.94
2023-02-07T23:32:41.936Z,103038.94
2023-02-07T23:35:46.005Z,103028.25
2023-02-07T23:38:49.424Z,103036.88
2023-02-07T23:41:52.142Z,103042.84
2023-02-07T23:44:54.917Z,103032.97
2023-02-07T23:47:58.304Z,103034.13
2023-02-07T23:51:03.946Z,103036.28
2023-02-07T23:54:06.670Z,103026.69
2023-02-07T23:57:09.314Z,103034.41
